sensor_id;sensor_type;location;lat;lon;timestamp;P1;durP1;ratioP1;P2;durP2;ratioP2
28828;SDS011;15966;51.540;11.870;2023-04-25T00:01:27;5.80;;;5.05;;
28828;SDS011;15966;51.540;11.870;2023-04-25T00:03:53;5.47;;;4.95;;
28828;SDS011;15966;51.540;11.870;2023-04-25T00:06:19;6.53;;;4.40;;
28828;SDS011;15966;51.540;11.870;2023-04-25T00:08:45;5.55;;;5.05;;
28828;SDS011;15966;51.540;11.870;2023-04-25T00:11:12;7.18;;;5.85;;
28828;SDS011;15966;51.540;11.870;2023-04-25T00:13:38;4.95;;;4.22;;
28828;SDS011;15966;51.540;11.870;2023-04-25T00:16:06;6.00;;;5.40;;
28828;SDS011;15966;51.540;11.870;2023-04-25T00:18:32;5.85;;;4.40;;
28828;SDS011;15966;51.540;11.870;2023-04-25T00:20:59;5.43;;;4.88;;
28828;SDS011;15966;51.540;11.870;2023-04-25T00:23:25;10.05;;;5.30;;
28828;SDS011;15966;51.540;11.870;2023-04-25T00:25:51;5.45;;;4.95;;
28828;SDS011;15966;51.540;11.870;2023-04-25T00:28:17;5.38;;;4.85;;
28828;SDS011;15966;51.540;11.870;2023-04-25T00:30:44;7.10;;;5.47;;
28828;SDS011;15966;51.540;11.870;2023-04-25T00:33:10;7.07;;;5.50;;
28828;SDS011;15966;51.540;11.870;2023-04-25T00:35:36;5.55;;;5.05;;
28828;SDS011;15966;51.540;11.870;2023-04-25T00:38:03;5.88;;;5.38;;
28828;SDS011;15966;51.540;11.870;2023-04-25T00:40:29;5.93;;;5.13;;
28828;SDS011;15966;51.540;11.870;2023-04-25T00:42:55;5.70;;;4.95;;
28828;SDS011;15966;51.540;11.870;2023-04-25T00:45:21;8.00;;;6.25;;
28828;SDS011;15966;51.540;11.870;2023-04-25T00:47:47;6.38;;;5.50;;
28828;SDS011;15966;51.540;11.870;2023-04-25T00:50:13;5.55;;;5.05;;
28828;SDS011;15966;51.540;11.870;2023-04-25T00:52:40;5.47;;;4.97;;
28828;SDS011;15966;51.540;11.870;2023-04-25T00:55:07;6.18;;;5.28;;
28828;SDS011;15966;51.540;11.870;2023-04-25T00:57:33;6.85;;;6.15;;
28828;SDS011;15966;51.540;11.870;2023-04-25T00:59:59;6.85;;;6.18;;
28828;SDS011;15966;51.540;11.870;2023-04-25T01:02:26;8.23;;;6.45;;
28828;SDS011;15966;51.540;11.870;2023-04-25T01:04:52;6.45;;;5.38;;
28828;SDS011;15966;51.540;11.870;2023-04-25T01:07:19;6.70;;;5.65;;
28828;SDS011;15966;51.540;11.870;2023-04-25T01:09:45;6.63;;;5.93;;
28828;SDS011;15966;51.540;11.870;2023-04-25T01:12:12;6.85;;;6.05;;
28828;SDS011;15966;51.540;11.870;2023-04-25T01:14:39;7.13;;;6.32;;
28828;SDS011;15966;51.540;11.870;2023-04-25T01:17:05;9.45;;;6.57;;
28828;SDS011;15966;51.540;11.870;2023-04-25T01:22:55;5.28;;;4.63;;
28828;SDS011;15966;51.540;11.870;2023-04-25T01:25:22;6.20;;;5.10;;
28828;SDS011;15966;51.540;11.870;2023-04-25T01:27:48;7.07;;;5.78;;
28828;SDS011;15966;51.540;11.870;2023-04-25T01:30:14;9.65;;;5.75;;
28828;SDS011;15966;51.540;11.870;2023-04-25T01:32:41;8.93;;;6.00;;
28828;SDS011;15966;51.540;11.870;2023-04-25T01:35:08;7.00;;;6.20;;
28828;SDS011;15966;51.540;11.870;2023-04-25T01:37:37;7.32;;;6.22;;
28828;SDS011;15966;51.540;11.870;2023-04-25T01:40:03;7.18;;;6.45;;
28828;SDS011;15966;51.540;11.870;2023-04-25T01:42:31;7.15;;;6.43;;
28828;SDS011;15966;51.540;11.870;2023-04-25T01:44:58;11.67;;;6.40;;
28828;SDS011;15966;51.540;11.870;2023-04-25T01:47:24;8.57;;;7.68;;
28828;SDS011;15966;51.540;11.870;2023-04-25T01:49:50;7.93;;;6.88;;
28828;SDS011;15966;51.540;11.870;2023-04-25T01:52:16;8.57;;;7.50;;
28828;SDS011;15966;51.540;11.870;2023-04-25T01:54:42;7.88;;;7.00;;
28828;SDS011;15966;51.540;11.870;2023-04-25T01:57:12;8.43;;;6.63;;
28828;SDS011;15966;51.540;11.870;2023-04-25T01:59:39;6.80;;;5.50;;
28828;SDS011;15966;51.540;11.870;2023-04-25T02:02:05;6.55;;;5.70;;
28828;SDS011;15966;51.540;11.870;2023-04-25T02:04:32;7.35;;;6.60;;
28828;SDS011;15966;51.540;11.870;2023-04-25T02:06:58;6.65;;;5.60;;
28828;SDS011;15966;51.540;11.870;2023-04-25T02:09:24;6.57;;;5.72;;
28828;SDS011;15966;51.540;11.870;2023-04-25T02:11:50;7.38;;;6.18;;
28828;SDS011;15966;51.540;11.870;2023-04-25T02:14:18;6.68;;;6.00;;
28828;SDS011;15966;51.540;11.870;2023-04-25T02:16:44;8.82;;;6.30;;
28828;SDS011;15966;51.540;11.870;2023-04-25T02:19:11;12.57;;;6.15;;
28828;SDS011;15966;51.540;11.870;2023-04-25T02:21:37;8.65;;;5.85;;
28828;SDS011;15966;51.540;11.870;2023-04-25T02:24:03;10.38;;;6.60;;
28828;SDS011;15966;51.540;11.870;2023-04-25T02:26:30;13.30;;;5.80;;
28828;SDS011;15966;51.540;11.870;2023-04-25T02:28:56;9.63;;;6.03;;
28828;SDS011;15966;51.540;11.870;2023-04-25T02:31:22;7.85;;;4.97;;
28828;SDS011;15966;51.540;11.870;2023-04-25T02:33:48;12.60;;;5.68;;
28828;SDS011;15966;51.540;11.870;2023-04-25T02:36:14;8.30;;;6.30;;
28828;SDS011;15966;51.540;11.870;2023-04-25T02:38:40;8.30;;;6.00;;
28828;SDS011;15966;51.540;11.870;2023-04-25T02:41:07;10.00;;;6.38;;
28828;SDS011;15966;51.540;11.870;2023-04-25T02:43:33;9.00;;;6.13;;
28828;SDS011;15966;51.540;11.870;2023-04-25T02:45:59;9.13;;;5.60;;
28828;SDS011;15966;51.540;11.870;2023-04-25T02:48:25;7.20;;;4.85;;
28828;SDS011;15966;51.540;11.870;2023-04-25T02:50:51;10.23;;;5.85;;
28828;SDS011;15966;51.540;11.870;2023-04-25T02:53:17;6.95;;;5.32;;
28828;SDS011;15966;51.540;11.870;2023-04-25T02:55:43;5.03;;;4.22;;
28828;SDS011;15966;51.540;11.870;2023-04-25T02:58:10;13.70;;;5.03;;
28828;SDS011;15966;51.540;11.870;2023-04-25T03:00:36;9.90;;;6.50;;
28828;SDS011;15966;51.540;11.870;2023-04-25T03:03:02;9.93;;;5.72;;
28828;SDS011;15966;51.540;11.870;2023-04-25T03:05:28;6.95;;;4.85;;
28828;SDS011;15966;51.540;11.870;2023-04-25T03:07:54;5.88;;;5.25;;
28828;SDS011;15966;51.540;11.870;2023-04-25T03:10:20;6.45;;;4.95;;
28828;SDS011;15966;51.540;11.870;2023-04-25T03:12:46;7.30;;;5.50;;
28828;SDS011;15966;51.540;11.870;2023-04-25T03:15:12;4.90;;;4.25;;
28828;SDS011;15966;51.540;11.870;2023-04-25T03:17:38;8.73;;;5.60;;
28828;SDS011;15966;51.540;11.870;2023-04-25T03:20:05;6.75;;;4.15;;
28828;SDS011;15966;51.540;11.870;2023-04-25T03:22:33;8.45;;;5.00;;
28828;SDS011;15966;51.540;11.870;2023-04-25T03:24:59;8.88;;;5.13;;
28828;SDS011;15966;51.540;11.870;2023-04-25T03:27:25;8.30;;;4.78;;
28828;SDS011;15966;51.540;11.870;2023-04-25T03:29:51;10.80;;;5.20;;
28828;SDS011;15966;51.540;11.870;2023-04-25T03:32:17;7.88;;;4.75;;
28828;SDS011;15966;51.540;11.870;2023-04-25T03:34:43;7.70;;;4.93;;
28828;SDS011;15966;51.540;11.870;2023-04-25T03:37:09;8.57;;;5.43;;
28828;SDS011;15966;51.540;11.870;2023-04-25T03:39:35;7.85;;;4.82;;
28828;SDS011;15966;51.540;11.870;2023-04-25T03:42:02;6.55;;;3.92;;
28828;SDS011;15966;51.540;11.870;2023-04-25T03:44:28;13.52;;;5.65;;
28828;SDS011;15966;51.540;11.870;2023-04-25T03:46:55;9.27;;;5.57;;
28828;SDS011;15966;51.540;11.870;2023-04-25T03:49:21;6.95;;;4.47;;
28828;SDS011;15966;51.540;11.870;2023-04-25T03:51:47;13.45;;;5.70;;
28828;SDS011;15966;51.540;11.870;2023-04-25T03:54:13;14.48;;;5.25;;
28828;SDS011;15966;51.540;11.870;2023-04-25T03:56:39;10.10;;;5.30;;
28828;SDS011;15966;51.540;11.870;2023-04-25T03:59:05;8.75;;;5.25;;
28828;SDS011;15966;51.540;11.870;2023-04-25T04:01:31;8.70;;;5.05;;
28828;SDS011;15966;51.540;11.870;2023-04-25T04:03:57;7.25;;;4.45;;
28828;SDS011;15966;51.540;11.870;2023-04-25T04:06:23;9.18;;;4.82;;
28828;SDS011;15966;51.540;11.870;2023-04-25T04:08:50;9.60;;;5.07;;
28828;SDS011;15966;51.540;11.870;2023-04-25T04:11:16;6.30;;;4.45;;
28828;SDS011;15966;51.540;11.870;2023-04-25T04:13:42;4.95;;;4.35;;
28828;SDS011;15966;51.540;11.870;2023-04-25T04:16:08;8.20;;;4.57;;
28828;SDS011;15966;51.540;11.870;2023-04-25T04:18:34;7.90;;;4.95;;
28828;SDS011;15966;51.540;11.870;2023-04-25T04:21:01;9.65;;;4.75;;
28828;SDS011;15966;51.540;11.870;2023-04-25T04:23:27;5.85;;;4.25;;
28828;SDS011;15966;51.540;11.870;2023-04-25T04:25:53;7.35;;;4.65;;
28828;SDS011;15966;51.540;11.870;2023-04-25T04:28:20;7.30;;;4.70;;
28828;SDS011;15966;51.540;11.870;2023-04-25T04:30:46;13.52;;;5.13;;
28828;SDS011;15966;51.540;11.870;2023-04-25T04:33:13;9.25;;;4.60;;
28828;SDS011;15966;51.540;11.870;2023-04-25T04:35:40;8.68;;;4.63;;
28828;SDS011;15966;51.540;11.870;2023-04-25T04:38:06;13.45;;;4.88;;
28828;SDS011;15966;51.540;11.870;2023-04-25T04:40:32;9.43;;;5.78;;
28828;SDS011;15966;51.540;11.870;2023-04-25T04:42:59;14.18;;;5.53;;
28828;SDS011;15966;51.540;11.870;2023-04-25T04:45:25;9.48;;;4.95;;
28828;SDS011;15966;51.540;11.870;2023-04-25T04:47:52;15.40;;;5.55;;
28828;SDS011;15966;51.540;11.870;2023-04-25T04:50:20;7.35;;;5.25;;
28828;SDS011;15966;51.540;11.870;2023-04-25T04:52:46;6.65;;;4.50;;
28828;SDS011;15966;51.540;11.870;2023-04-25T04:55:12;6.07;;;4.55;;
28828;SDS011;15966;51.540;11.870;2023-04-25T04:57:38;7.57;;;4.93;;
28828;SDS011;15966;51.540;11.870;2023-04-25T05:00:05;6.38;;;5.63;;
28828;SDS011;15966;51.540;11.870;2023-04-25T05:02:36;11.25;;;7.32;;
28828;SDS011;15966;51.540;11.870;2023-04-25T05:05:03;12.20;;;8.27;;
28828;SDS011;15966;51.540;11.870;2023-04-25T05:07:30;10.30;;;6.43;;
28828;SDS011;15966;51.540;11.870;2023-04-25T05:09:56;8.75;;;6.68;;
28828;SDS011;15966;51.540;11.870;2023-04-25T05:12:22;13.65;;;6.57;;
28828;SDS011;15966;51.540;11.870;2023-04-25T05:14:48;15.18;;;8.63;;
28828;SDS011;15966;51.540;11.870;2023-04-25T05:17:14;9.45;;;7.45;;
28828;SDS011;15966;51.540;11.870;2023-04-25T05:19:40;13.95;;;8.02;;
28828;SDS011;15966;51.540;11.870;2023-04-25T05:22:06;9.77;;;7.38;;
28828;SDS011;15966;51.540;11.870;2023-04-25T05:24:32;12.23;;;6.50;;
28828;SDS011;15966;51.540;11.870;2023-04-25T05:26:58;7.88;;;6.03;;
28828;SDS011;15966;51.540;11.870;2023-04-25T05:29:24;9.25;;;6.10;;
28828;SDS011;15966;51.540;11.870;2023-04-25T05:31:50;8.65;;;6.93;;
28828;SDS011;15966;51.540;11.870;2023-04-25T05:34:17;16.17;;;8.10;;
28828;SDS011;15966;51.540;11.870;2023-04-25T05:36:43;16.75;;;8.88;;
28828;SDS011;15966;51.540;11.870;2023-04-25T05:39:13;14.80;;;8.05;;
28828;SDS011;15966;51.540;11.870;2023-04-25T05:41:40;15.53;;;8.43;;
28828;SDS011;15966;51.540;11.870;2023-04-25T05:44:06;10.82;;;6.93;;
28828;SDS011;15966;51.540;11.870;2023-04-25T05:46:32;13.07;;;8.38;;
28828;SDS011;15966;51.540;11.870;2023-04-25T05:48:58;13.20;;;7.18;;
28828;SDS011;15966;51.540;11.870;2023-04-25T05:51:24;10.48;;;6.72;;
28828;SDS011;15966;51.540;11.870;2023-04-25T05:53:50;16.25;;;7.82;;
28828;SDS011;15966;51.540;11.870;2023-04-25T05:56:17;13.40;;;8.18;;
28828;SDS011;15966;51.540;11.870;2023-04-25T05:58:43;16.60;;;8.38;;
28828;SDS011;15966;51.540;11.870;2023-04-25T06:01:09;10.65;;;7.07;;
28828;SDS011;15966;51.540;11.870;2023-04-25T06:03:35;13.70;;;7.97;;
28828;SDS011;15966;51.540;11.870;2023-04-25T06:06:02;13.00;;;7.90;;
28828;SDS011;15966;51.540;11.870;2023-04-25T06:08:29;10.82;;;7.60;;
28828;SDS011;15966;51.540;11.870;2023-04-25T06:10:55;10.63;;;6.88;;
28828;SDS011;15966;51.540;11.870;2023-04-25T06:13:21;16.75;;;8.05;;
28828;SDS011;15966;51.540;11.870;2023-04-25T06:15:47;18.60;;;8.95;;
28828;SDS011;15966;51.540;11.870;2023-04-25T06:18:13;9.43;;;6.93;;
28828;SDS011;15966;51.540;11.870;2023-04-25T06:20:39;11.32;;;7.40;;
28828;SDS011;15966;51.540;11.870;2023-04-25T06:23:05;12.75;;;7.43;;
28828;SDS011;15966;51.540;11.870;2023-04-25T06:25:31;15.82;;;9.52;;
28828;SDS011;15966;51.540;11.870;2023-04-25T06:27:57;11.60;;;7.25;;
28828;SDS011;15966;51.540;11.870;2023-04-25T06:30:24;10.15;;;7.90;;
28828;SDS011;15966;51.540;11.870;2023-04-25T06:32:51;12.52;;;8.63;;
28828;SDS011;15966;51.540;11.870;2023-04-25T06:35:18;15.90;;;9.77;;
28828;SDS011;15966;51.540;11.870;2023-04-25T06:37:44;13.90;;;9.05;;
28828;SDS011;15966;51.540;11.870;2023-04-25T06:40:10;12.38;;;8.98;;
28828;SDS011;15966;51.540;11.870;2023-04-25T06:42:36;10.65;;;6.72;;
28828;SDS011;15966;51.540;11.870;2023-04-25T06:45:02;15.57;;;6.07;;
28828;SDS011;15966;51.540;11.870;2023-04-25T06:47:29;9.43;;;3.20;;
28828;SDS011;15966;51.540;11.870;2023-04-25T06:49:55;9.27;;;3.53;;
28828;SDS011;15966;51.540;11.870;2023-04-25T06:52:21;10.10;;;4.00;;
28828;SDS011;15966;51.540;11.870;2023-04-25T06:54:48;8.70;;;3.95;;
28828;SDS011;15966;51.540;11.870;2023-04-25T06:57:14;8.48;;;3.13;;
28828;SDS011;15966;51.540;11.870;2023-04-25T06:59:40;11.98;;;3.67;;
28828;SDS011;15966;51.540;11.870;2023-04-25T07:02:06;6.95;;;3.47;;
28828;SDS011;15966;51.540;11.870;2023-04-25T07:04:32;9.23;;;3.40;;
28828;SDS011;15966;51.540;11.870;2023-04-25T07:06:58;10.20;;;3.90;;
28828;SDS011;15966;51.540;11.870;2023-04-25T07:09:27;9.13;;;3.85;;
28828;SDS011;15966;51.540;11.870;2023-04-25T07:11:53;15.65;;;4.68;;
28828;SDS011;15966;51.540;11.870;2023-04-25T07:14:19;15.57;;;4.82;;
28828;SDS011;15966;51.540;11.870;2023-04-25T07:16:45;7.57;;;4.55;;
28828;SDS011;15966;51.540;11.870;2023-04-25T07:19:11;11.35;;;3.50;;
28828;SDS011;15966;51.540;11.870;2023-04-25T07:21:37;14.40;;;4.43;;
28828;SDS011;15966;51.540;11.870;2023-04-25T07:24:04;10.27;;;3.80;;
28828;SDS011;15966;51.540;11.870;2023-04-25T07:26:30;15.02;;;4.20;;
28828;SDS011;15966;51.540;11.870;2023-04-25T07:28:56;15.68;;;4.00;;
28828;SDS011;15966;51.540;11.870;2023-04-25T07:31:22;19.13;;;5.72;;
28828;SDS011;15966;51.540;11.870;2023-04-25T07:33:48;11.13;;;3.88;;
28828;SDS011;15966;51.540;11.870;2023-04-25T07:36:15;11.30;;;4.57;;
28828;SDS011;15966;51.540;11.870;2023-04-25T07:38:41;14.52;;;4.72;;
28828;SDS011;15966;51.540;11.870;2023-04-25T07:41:07;8.77;;;3.22;;
28828;SDS011;15966;51.540;11.870;2023-04-25T07:43:33;16.50;;;4.63;;
28828;SDS011;15966;51.540;11.870;2023-04-25T07:45:59;11.10;;;4.30;;
28828;SDS011;15966;51.540;11.870;2023-04-25T07:48:25;10.15;;;3.33;;
28828;SDS011;15966;51.540;11.870;2023-04-25T07:50:51;11.20;;;4.20;;
28828;SDS011;15966;51.540;11.870;2023-04-25T07:53:17;14.45;;;4.82;;
28828;SDS011;15966;51.540;11.870;2023-04-25T07:55:43;15.15;;;4.30;;
28828;SDS011;15966;51.540;11.870;2023-04-25T07:58:11;10.50;;;4.18;;
28828;SDS011;15966;51.540;11.870;2023-04-25T08:00:37;13.32;;;5.13;;
28828;SDS011;15966;51.540;11.870;2023-04-25T08:03:03;15.00;;;4.65;;
28828;SDS011;15966;51.540;11.870;2023-04-25T08:05:29;19.48;;;5.35;;
28828;SDS011;15966;51.540;11.870;2023-04-25T08:07:55;15.60;;;4.95;;
28828;SDS011;15966;51.540;11.870;2023-04-25T08:10:21;13.73;;;5.55;;
28828;SDS011;15966;51.540;11.870;2023-04-25T08:12:48;11.13;;;5.10;;
28828;SDS011;15966;51.540;11.870;2023-04-25T08:15:14;20.55;;;4.13;;
28828;SDS011;15966;51.540;11.870;2023-04-25T08:17:40;12.98;;;5.28;;
28828;SDS011;15966;51.540;11.870;2023-04-25T08:22:35;14.07;;;5.30;;
28828;SDS011;15966;51.540;11.870;2023-04-25T08:25:02;13.80;;;4.75;;
28828;SDS011;15966;51.540;11.870;2023-04-25T08:27:28;16.77;;;5.60;;
28828;SDS011;15966;51.540;11.870;2023-04-25T08:29:54;12.40;;;4.25;;
28828;SDS011;15966;51.540;11.870;2023-04-25T08:32:21;15.90;;;6.20;;
28828;SDS011;15966;51.540;11.870;2023-04-25T08:34:47;14.98;;;5.35;;
28828;SDS011;15966;51.540;11.870;2023-04-25T08:37:13;16.15;;;5.85;;
28828;SDS011;15966;51.540;11.870;2023-04-25T08:39:39;17.48;;;5.82;;
28828;SDS011;15966;51.540;11.870;2023-04-25T08:42:07;17.08;;;6.57;;
28828;SDS011;15966;51.540;11.870;2023-04-25T08:44:33;11.77;;;5.43;;
28828;SDS011;15966;51.540;11.870;2023-04-25T08:47:01;13.83;;;5.87;;
28828;SDS011;15966;51.540;11.870;2023-04-25T08:49:29;18.58;;;7.20;;
28828;SDS011;15966;51.540;11.870;2023-04-25T08:51:56;19.83;;;7.70;;
28828;SDS011;15966;51.540;11.870;2023-04-25T08:54:25;20.05;;;8.10;;
28828;SDS011;15966;51.540;11.870;2023-04-25T08:56:54;18.63;;;7.95;;
28828;SDS011;15966;51.540;11.870;2023-04-25T08:59:21;16.40;;;7.20;;
28828;SDS011;15966;51.540;11.870;2023-04-25T09:01:49;19.98;;;8.32;;
28828;SDS011;15966;51.540;11.870;2023-04-25T09:04:15;12.30;;;6.50;;
28828;SDS011;15966;51.540;11.870;2023-04-25T09:06:41;15.27;;;7.60;;
28828;SDS011;15966;51.540;11.870;2023-04-25T09:09:08;15.98;;;6.82;;
28828;SDS011;15966;51.540;11.870;2023-04-25T09:11:37;17.80;;;7.65;;
28828;SDS011;15966;51.540;11.870;2023-04-25T09:14:10;15.07;;;6.60;;
28828;SDS011;15966;51.540;11.870;2023-04-25T09:16:49;16.38;;;7.60;;
28828;SDS011;15966;51.540;11.870;2023-04-25T09:19:23;15.15;;;6.22;;
28828;SDS011;15966;51.540;11.870;2023-04-25T09:21:50;11.68;;;5.78;;
28828;SDS011;15966;51.540;11.870;2023-04-25T09:24:29;15.88;;;7.80;;
28828;SDS011;15966;51.540;11.870;2023-04-25T09:26:56;17.60;;;7.25;;
28828;SDS011;15966;51.540;11.870;2023-04-25T09:29:28;14.75;;;7.18;;
28828;SDS011;15966;51.540;11.870;2023-04-25T09:32:11;12.77;;;6.65;;
28828;SDS011;15966;51.540;11.870;2023-04-25T09:34:44;12.32;;;5.80;;
28828;SDS011;15966;51.540;11.870;2023-04-25T09:37:27;18.83;;;6.00;;
28828;SDS011;15966;51.540;11.870;2023-04-25T09:39:54;16.83;;;5.75;;
28828;SDS011;15966;51.540;11.870;2023-04-25T09:42:27;13.88;;;5.32;;
28828;SDS011;15966;51.540;11.870;2023-04-25T09:44:56;26.38;;;6.43;;
28828;SDS011;15966;51.540;11.870;2023-04-25T09:47:25;12.52;;;5.15;;
28828;SDS011;15966;51.540;11.870;2023-04-25T09:49:53;10.65;;;6.38;;
28828;SDS011;15966;51.540;11.870;2023-04-25T09:52:23;21.23;;;5.90;;
28828;SDS011;15966;51.540;11.870;2023-04-25T09:54:50;14.52;;;4.78;;
28828;SDS011;15966;51.540;11.870;2023-04-25T09:59:45;9.68;;;3.85;;
28828;SDS011;15966;51.540;11.870;2023-04-25T10:04:44;12.10;;;5.07;;
28828;SDS011;15966;51.540;11.870;2023-04-25T10:07:14;15.43;;;6.25;;
28828;SDS011;15966;51.540;11.870;2023-04-25T10:09:40;17.23;;;7.30;;
28828;SDS011;15966;51.540;11.870;2023-04-25T10:12:07;17.75;;;6.45;;
28828;SDS011;15966;51.540;11.870;2023-04-25T10:14:33;17.67;;;7.20;;
28828;SDS011;15966;51.540;11.870;2023-04-25T10:17:00;16.70;;;7.07;;
28828;SDS011;15966;51.540;11.870;2023-04-25T10:19:26;18.48;;;6.25;;
28828;SDS011;15966;51.540;11.870;2023-04-25T10:22:03;19.02;;;6.32;;
28828;SDS011;15966;51.540;11.870;2023-04-25T10:24:35;13.88;;;5.50;;
28828;SDS011;15966;51.540;11.870;2023-04-25T10:27:02;14.85;;;5.30;;
28828;SDS011;15966;51.540;11.870;2023-04-25T10:29:29;13.50;;;5.05;;
28828;SDS011;15966;51.540;11.870;2023-04-25T10:31:55;12.48;;;5.50;;
28828;SDS011;15966;51.540;11.870;2023-04-25T10:37:09;11.65;;;4.13;;
28828;SDS011;15966;51.540;11.870;2023-04-25T10:39:36;10.95;;;4.70;;
28828;SDS011;15966;51.540;11.870;2023-04-25T10:42:05;11.55;;;3.47;;
28828;SDS011;15966;51.540;11.870;2023-04-25T10:44:32;8.85;;;3.22;;
28828;SDS011;15966;51.540;11.870;2023-04-25T10:46:59;10.63;;;4.15;;
28828;SDS011;15966;51.540;11.870;2023-04-25T10:52:18;10.07;;;3.63;;
28828;SDS011;15966;51.540;11.870;2023-04-25T10:54:53;6.47;;;3.42;;
28828;SDS011;15966;51.540;11.870;2023-04-25T10:57:31;7.43;;;3.38;;
28828;SDS011;15966;51.540;11.870;2023-04-25T11:02:37;10.13;;;3.40;;
28828;SDS011;15966;51.540;11.870;2023-04-25T11:05:08;11.32;;;4.07;;
28828;SDS011;15966;51.540;11.870;2023-04-25T11:07:38;14.00;;;3.38;;
28828;SDS011;15966;51.540;11.870;2023-04-25T11:10:13;8.75;;;3.35;;
28828;SDS011;15966;51.540;11.870;2023-04-25T11:12:39;8.10;;;3.20;;
28828;SDS011;15966;51.540;11.870;2023-04-25T11:15:06;11.98;;;3.92;;
28828;SDS011;15966;51.540;11.870;2023-04-25T11:17:33;15.03;;;3.97;;
28828;SDS011;15966;51.540;11.870;2023-04-25T11:19:59;9.82;;;3.25;;
28828;SDS011;15966;51.540;11.870;2023-04-25T11:22:28;20.70;;;3.80;;
28828;SDS011;15966;51.540;11.870;2023-04-25T11:24:55;16.65;;;4.07;;
28828;SDS011;15966;51.540;11.870;2023-04-25T11:27:21;10.88;;;3.42;;
28828;SDS011;15966;51.540;11.870;2023-04-25T11:29:49;16.15;;;3.30;;
28828;SDS011;15966;51.540;11.870;2023-04-25T11:32:15;9.63;;;3.15;;
28828;SDS011;15966;51.540;11.870;2023-04-25T11:34:42;8.30;;;3.10;;
28828;SDS011;15966;51.540;11.870;2023-04-25T11:37:10;10.15;;;3.08;;
28828;SDS011;15966;51.540;11.870;2023-04-25T11:39:37;10.88;;;3.78;;
28828;SDS011;15966;51.540;11.870;2023-04-25T11:42:04;7.50;;;2.97;;
28828;SDS011;15966;51.540;11.870;2023-04-25T11:44:30;6.65;;;2.20;;
28828;SDS011;15966;51.540;11.870;2023-04-25T11:46:57;7.63;;;2.95;;
28828;SDS011;15966;51.540;11.870;2023-04-25T11:49:23;12.93;;;3.53;;
28828;SDS011;15966;51.540;11.870;2023-04-25T11:51:50;5.30;;;2.47;;
28828;SDS011;15966;51.540;11.870;2023-04-25T11:54:16;9.73;;;2.95;;
28828;SDS011;15966;51.540;11.870;2023-04-25T11:56:42;7.88;;;3.10;;
28828;SDS011;15966;51.540;11.870;2023-04-25T11:59:09;6.47;;;1.73;;
28828;SDS011;15966;51.540;11.870;2023-04-25T12:01:36;10.63;;;2.10;;
28828;SDS011;15966;51.540;11.870;2023-04-25T12:04:16;4.32;;;1.83;;
28828;SDS011;15966;51.540;11.870;2023-04-25T12:06:47;6.13;;;1.63;;
28828;SDS011;15966;51.540;11.870;2023-04-25T12:11:43;6.18;;;2.33;;
28828;SDS011;15966;51.540;11.870;2023-04-25T12:16:43;5.90;;;2.70;;
28828;SDS011;15966;51.540;11.870;2023-04-25T12:19:13;5.30;;;1.92;;
28828;SDS011;15966;51.540;11.870;2023-04-25T12:21:40;4.07;;;2.10;;
28828;SDS011;15966;51.540;11.870;2023-04-25T12:24:16;6.03;;;1.88;;
28828;SDS011;15966;51.540;11.870;2023-04-25T12:26:47;19.08;;;2.65;;
28828;SDS011;15966;51.540;11.870;2023-04-25T12:29:28;6.22;;;2.33;;
28828;SDS011;15966;51.540;11.870;2023-04-25T12:31:55;5.28;;;2.33;;
28828;SDS011;15966;51.540;11.870;2023-04-25T12:34:22;6.72;;;2.65;;
28828;SDS011;15966;51.540;11.870;2023-04-25T12:36:49;10.00;;;3.63;;
28828;SDS011;15966;51.540;11.870;2023-04-25T12:39:20;9.05;;;2.88;;
28828;SDS011;15966;51.540;11.870;2023-04-25T12:41:47;16.98;;;3.60;;
28828;SDS011;15966;51.540;11.870;2023-04-25T12:44:13;4.60;;;2.42;;
28828;SDS011;15966;51.540;11.870;2023-04-25T12:46:40;8.20;;;2.00;;
28828;SDS011;15966;51.540;11.870;2023-04-25T12:49:06;6.32;;;2.85;;
28828;SDS011;15966;51.540;11.870;2023-04-25T12:51:33;9.73;;;2.35;;
28828;SDS011;15966;51.540;11.870;2023-04-25T12:54:00;7.18;;;2.28;;
28828;SDS011;15966;51.540;11.870;2023-04-25T12:56:27;7.95;;;3.05;;
28828;SDS011;15966;51.540;11.870;2023-04-25T12:58:53;11.10;;;2.65;;
28828;SDS011;15966;51.540;11.870;2023-04-25T13:01:20;5.28;;;2.40;;
28828;SDS011;15966;51.540;11.870;2023-04-25T13:03:46;6.05;;;2.03;;
28828;SDS011;15966;51.540;11.870;2023-04-25T13:06:13;9.63;;;2.37;;
28828;SDS011;15966;51.540;11.870;2023-04-25T13:08:40;6.47;;;2.08;;
28828;SDS011;15966;51.540;11.870;2023-04-25T13:11:07;11.15;;;2.08;;
28828;SDS011;15966;51.540;11.870;2023-04-25T13:13:33;4.72;;;1.42;;
28828;SDS011;15966;51.540;11.870;2023-04-25T13:16:00;5.82;;;2.28;;
28828;SDS011;15966;51.540;11.870;2023-04-25T13:18:27;5.43;;;2.40;;
28828;SDS011;15966;51.540;11.870;2023-04-25T13:20:54;9.75;;;2.72;;
28828;SDS011;15966;51.540;11.870;2023-04-25T13:23:20;3.80;;;2.33;;
28828;SDS011;15966;51.540;11.870;2023-04-25T13:25:46;3.47;;;2.20;;
28828;SDS011;15966;51.540;11.870;2023-04-25T13:28:12;3.13;;;1.80;;
28828;SDS011;15966;51.540;11.870;2023-04-25T13:30:39;7.75;;;2.78;;
28828;SDS011;15966;51.540;11.870;2023-04-25T13:33:05;6.97;;;2.28;;
28828;SDS011;15966;51.540;11.870;2023-04-25T13:35:32;4.50;;;2.40;;
28828;SDS011;15966;51.540;11.870;2023-04-25T13:37:59;5.35;;;2.45;;
28828;SDS011;15966;51.540;11.870;2023-04-25T13:40:25;6.57;;;2.30;;
28828;SDS011;15966;51.540;11.870;2023-04-25T13:42:52;5.40;;;1.90;;
28828;SDS011;15966;51.540;11.870;2023-04-25T13:45:18;5.47;;;2.58;;
28828;SDS011;15966;51.540;11.870;2023-04-25T13:47:44;4.65;;;2.05;;
28828;SDS011;15966;51.540;11.870;2023-04-25T13:50:11;7.95;;;3.08;;
28828;SDS011;15966;51.540;11.870;2023-04-25T13:52:37;5.32;;;2.55;;
28828;SDS011;15966;51.540;11.870;2023-04-25T13:55:03;5.80;;;2.20;;
28828;SDS011;15966;51.540;11.870;2023-04-25T13:57:31;9.63;;;3.35;;
28828;SDS011;15966;51.540;11.870;2023-04-25T13:59:58;4.13;;;2.13;;
28828;SDS011;15966;51.540;11.870;2023-04-25T14:02:24;11.13;;;2.60;;
28828;SDS011;15966;51.540;11.870;2023-04-25T14:04:50;7.40;;;2.72;;
28828;SDS011;15966;51.540;11.870;2023-04-25T14:07:17;5.80;;;2.30;;
28828;SDS011;15966;51.540;11.870;2023-04-25T14:09:44;5.68;;;2.58;;
28828;SDS011;15966;51.540;11.870;2023-04-25T14:12:10;5.35;;;2.15;;
28828;SDS011;15966;51.540;11.870;2023-04-25T14:14:36;3.70;;;1.70;;
28828;SDS011;15966;51.540;11.870;2023-04-25T14:17:03;4.32;;;2.65;;
28828;SDS011;15966;51.540;11.870;2023-04-25T14:19:29;8.05;;;2.78;;
28828;SDS011;15966;51.540;11.870;2023-04-25T14:21:55;4.93;;;2.50;;
28828;SDS011;15966;51.540;11.870;2023-04-25T14:24:22;5.75;;;1.92;;
28828;SDS011;15966;51.540;11.870;2023-04-25T14:26:48;10.38;;;2.55;;
28828;SDS011;15966;51.540;11.870;2023-04-25T14:29:14;6.53;;;2.60;;
28828;SDS011;15966;51.540;11.870;2023-04-25T14:31:40;8.20;;;2.58;;
28828;SDS011;15966;51.540;11.870;2023-04-25T14:34:06;3.05;;;1.85;;
28828;SDS011;15966;51.540;11.870;2023-04-25T14:36:33;8.90;;;2.78;;
28828;SDS011;15966;51.540;11.870;2023-04-25T14:39:00;5.70;;;2.53;;
28828;SDS011;15966;51.540;11.870;2023-04-25T14:41:26;3.60;;;2.20;;
28828;SDS011;15966;51.540;11.870;2023-04-25T14:43:53;4.28;;;2.08;;
28828;SDS011;15966;51.540;11.870;2023-04-25T14:48:48;4.72;;;2.05;;
28828;SDS011;15966;51.540;11.870;2023-04-25T14:51:14;4.97;;;1.65;;
28828;SDS011;15966;51.540;11.870;2023-04-25T14:53:40;5.93;;;2.15;;